sensor_id;sensor_type;location;lat;lon;timestamp;P1;durP1;ratioP1;P2;durP2;ratioP2
15006;SDS011;7599;50.748;13.142;2024-01-11T00:02:32;1.65;;;0.60;;
15006;SDS011;7599;50.748;13.142;2024-01-11T00:05:34;0.88;;;0.55;;
15006;SDS011;7599;50.748;13.142;2024-01-11T00:08:37;1.38;;;0.80;;
15006;SDS011;7599;50.748;13.142;2024-01-11T00:11:41;1.17;;;0.70;;
15006;SDS011;7599;50.748;13.142;2024-01-11T00:14:44;0.90;;;0.60;;
15006;SDS011;7599;50.748;13.142;2024-01-11T00:17:47;1.52;;;0.50;;
15006;SDS011;7599;50.748;13.142;2024-01-11T00:20:49;2.33;;;0.50;;
15006;SDS011;7599;50.748;13.142;2024-01-11T00:23:53;1.05;;;0.70;;
15006;SDS011;7599;50.748;13.142;2024-01-11T00:26:57;0.88;;;0.60;;
15006;SDS011;7599;50.748;13.142;2024-01-11T00:29:59;1.85;;;0.63;;
15006;SDS011;7599;50.748;13.142;2024-01-11T00:33:02;1.00;;;0.60;;
15006;SDS011;7599;50.748;13.142;2024-01-11T00:36:05;2.08;;;0.68;;
15006;SDS011;7599;50.748;13.142;2024-01-11T00:42:14;1.63;;;0.60;;
15006;SDS011;7599;50.748;13.142;2024-01-11T00:45:16;1.10;;;0.70;;
15006;SDS011;7599;50.748;13.142;2024-01-11T00:48:19;1.30;;;0.70;;
15006;SDS011;7599;50.748;13.142;2024-01-11T01:00:30;0.95;;;0.40;;
15006;SDS011;7599;50.748;13.142;2024-01-11T01:03:33;1.05;;;0.60;;
15006;SDS011;7599;50.748;13.142;2024-01-11T01:06:36;1.10;;;0.73;;
15006;SDS011;7599;50.748;13.142;2024-01-11T01:09:39;0.80;;;0.70;;
15006;SDS011;7599;50.748;13.142;2024-01-11T01:12:43;1.02;;;0.47;;
15006;SDS011;7599;50.748;13.142;2024-01-11T01:15:45;0.73;;;0.50;;
15006;SDS011;7599;50.748;13.142;2024-01-11T01:18:48;1.88;;;0.60;;
15006;SDS011;7599;50.748;13.142;2024-01-11T01:21:50;0.60;;;0.50;;
15006;SDS011;7599;50.748;13.142;2024-01-11T01:24:53;1.17;;;0.57;;
15006;SDS011;7599;50.748;13.142;2024-01-11T01:27:57;1.60;;;0.60;;
15006;SDS011;7599;50.748;13.142;2024-01-11T01:31:00;0.68;;;0.40;;
15006;SDS011;7599;50.748;13.142;2024-01-11T01:34:03;0.70;;;0.50;;
15006;SDS011;7599;50.748;13.142;2024-01-11T01:37:06;0.60;;;0.50;;
15006;SDS011;7599;50.748;13.142;2024-01-11T01:40:09;0.60;;;0.50;;
15006;SDS011;7599;50.748;13.142;2024-01-11T01:43:13;1.17;;;0.60;;
15006;SDS011;7599;50.748;13.142;2024-01-11T01:46:18;0.85;;;0.73;;
15006;SDS011;7599;50.748;13.142;2024-01-11T01:49:24;0.40;;;0.40;;
15006;SDS011;7599;50.748;13.142;2024-01-11T01:55:29;1.75;;;0.70;;
15006;SDS011;7599;50.748;13.142;2024-01-11T02:01:35;0.65;;;0.40;;
15006;SDS011;7599;50.748;13.142;2024-01-11T02:04:38;1.08;;;0.47;;
15006;SDS011;7599;50.748;13.142;2024-01-11T02:07:41;1.00;;;0.70;;
15006;SDS011;7599;50.748;13.142;2024-01-11T02:10:44;0.75;;;0.55;;
15006;SDS011;7599;50.748;13.142;2024-01-11T02:13:49;0.82;;;0.40;;
15006;SDS011;7599;50.748;13.142;2024-01-11T02:16:51;0.75;;;0.60;;
15006;SDS011;7599;50.748;13.142;2024-01-11T02:22:58;0.65;;;0.43;;
15006;SDS011;7599;50.748;13.142;2024-01-11T02:26:05;1.02;;;0.70;;
15006;SDS011;7599;50.748;13.142;2024-01-11T02:29:07;0.60;;;0.40;;
15006;SDS011;7599;50.748;13.142;2024-01-11T02:32:10;0.40;;;0.40;;
15006;SDS011;7599;50.748;13.142;2024-01-11T02:35:13;1.15;;;0.60;;
15006;SDS011;7599;50.748;13.142;2024-01-11T02:38:17;4.03;;;0.52;;
15006;SDS011;7599;50.748;13.142;2024-01-11T02:41:21;0.77;;;0.50;;
15006;SDS011;7599;50.748;13.142;2024-01-11T02:44:24;0.80;;;0.50;;
15006;SDS011;7599;50.748;13.142;2024-01-11T02:47:26;0.57;;;0.43;;
15006;SDS011;7599;50.748;13.142;2024-01-11T02:53:33;0.60;;;0.50;;
15006;SDS011;7599;50.748;13.142;2024-01-11T02:56:37;0.85;;;0.47;;
15006;SDS011;7599;50.748;13.142;2024-01-11T02:59:40;0.68;;;0.40;;
15006;SDS011;7599;50.748;13.142;2024-01-11T03:02:42;1.20;;;0.40;;
15006;SDS011;7599;50.748;13.142;2024-01-11T03:05:45;0.70;;;0.57;;
15006;SDS011;7599;50.748;13.142;2024-01-11T03:08:48;0.50;;;0.50;;
15006;SDS011;7599;50.748;13.142;2024-01-11T03:11:52;0.73;;;0.50;;
15006;SDS011;7599;50.748;13.142;2024-01-11T03:14:54;0.90;;;0.60;;
15006;SDS011;7599;50.748;13.142;2024-01-11T03:21:00;1.23;;;0.45;;
15006;SDS011;7599;50.748;13.142;2024-01-11T03:24:02;0.60;;;0.40;;
15006;SDS011;7599;50.748;13.142;2024-01-11T03:27:06;0.60;;;0.50;;
15006;SDS011;7599;50.748;13.142;2024-01-11T03:30:09;1.10;;;0.50;;
15006;SDS011;7599;50.748;13.142;2024-01-11T03:33:12;0.30;;;0.30;;
15006;SDS011;7599;50.748;13.142;2024-01-11T03:36:15;0.93;;;0.55;;
15006;SDS011;7599;50.748;13.142;2024-01-11T03:39:17;0.55;;;0.40;;
15006;SDS011;7599;50.748;13.142;2024-01-11T03:42:21;0.82;;;0.40;;
15006;SDS011;7599;50.748;13.142;2024-01-11T03:45:25;0.43;;;0.32;;
15006;SDS011;7599;50.748;13.142;2024-01-11T03:48:27;0.57;;;0.50;;
15006;SDS011;7599;50.748;13.142;2024-01-11T03:51:30;0.40;;;0.40;;
15006;SDS011;7599;50.748;13.142;2024-01-11T03:54:32;0.40;;;0.30;;
15006;SDS011;7599;50.748;13.142;2024-01-11T03:57:36;0.70;;;0.70;;
15006;SDS011;7599;50.748;13.142;2024-01-11T04:00:39;0.63;;;0.30;;
15006;SDS011;7599;50.748;13.142;2024-01-11T04:03:41;0.80;;;0.50;;
15006;SDS011;7599;50.748;13.142;2024-01-11T04:06:45;0.50;;;0.30;;
15006;SDS011;7599;50.748;13.142;2024-01-11T04:09:47;0.70;;;0.50;;
15006;SDS011;7599;50.748;13.142;2024-01-11T04:12:51;0.55;;;0.40;;
15006;SDS011;7599;50.748;13.142;2024-01-11T04:15:53;0.57;;;0.40;;
15006;SDS011;7599;50.748;13.142;2024-01-11T04:18:56;0.57;;;0.40;;
15006;SDS011;7599;50.748;13.142;2024-01-11T04:21:59;0.40;;;0.40;;
15006;SDS011;7599;50.748;13.142;2024-01-11T04:25:01;0.32;;;0.32;;
15006;SDS011;7599;50.748;13.142;2024-01-11T04:28:05;0.50;;;0.32;;
15006;SDS011;7599;50.748;13.142;2024-01-11T04:31:08;0.47;;;0.40;;
15006;SDS011;7599;50.748;13.142;2024-01-11T04:34:10;0.43;;;0.40;;
15006;SDS011;7599;50.748;13.142;2024-01-11T04:40:15;1.00;;;0.50;;
15006;SDS011;7599;50.748;13.142;2024-01-11T04:46:22;1.00;;;0.60;;
15006;SDS011;7599;50.748;13.142;2024-01-11T04:49:25;0.52;;;0.30;;
15006;SDS011;7599;50.748;13.142;2024-01-11T04:52:28;0.60;;;0.43;;
15006;SDS011;7599;50.748;13.142;2024-01-11T04:55:31;0.63;;;0.30;;
15006;SDS011;7599;50.748;13.142;2024-01-11T04:58:35;0.57;;;0.45;;
15006;SDS011;7599;50.748;13.142;2024-01-11T05:01:40;0.70;;;0.50;;
15006;SDS011;7599;50.748;13.142;2024-01-11T05:04:43;0.43;;;0.30;;
15006;SDS011;7599;50.748;13.142;2024-01-11T05:07:45;1.02;;;0.50;;
15006;SDS011;7599;50.748;13.142;2024-01-11T05:10:48;0.70;;;0.52;;
15006;SDS011;7599;50.748;13.142;2024-01-11T05:13:52;0.43;;;0.40;;
15006;SDS011;7599;50.748;13.142;2024-01-11T05:16:55;0.93;;;0.63;;
15006;SDS011;7599;50.748;13.142;2024-01-11T05:19:57;0.38;;;0.38;;
15006;SDS011;7599;50.748;13.142;2024-01-11T05:26:03;0.40;;;0.32;;
15006;SDS011;7599;50.748;13.142;2024-01-11T05:29:07;0.55;;;0.40;;
15006;SDS011;7599;50.748;13.142;2024-01-11T05:32:10;1.02;;;0.50;;
15006;SDS011;7599;50.748;13.142;2024-01-11T05:35:13;0.45;;;0.32;;
15006;SDS011;7599;50.748;13.142;2024-01-11T05:38:16;0.55;;;0.30;;
15006;SDS011;7599;50.748;13.142;2024-01-11T05:41:18;0.47;;;0.40;;
15006;SDS011;7599;50.748;13.142;2024-01-11T05:44:23;0.68;;;0.45;;
15006;SDS011;7599;50.748;13.142;2024-01-11T05:47:25;0.60;;;0.40;;
15006;SDS011;7599;50.748;13.142;2024-01-11T05:50:28;0.40;;;0.30;;
15006;SDS011;7599;50.748;13.142;2024-01-11T05:53:31;0.77;;;0.40;;
15006;SDS011;7599;50.748;13.142;2024-01-11T05:56:36;1.45;;;0.47;;
15006;SDS011;7599;50.748;13.142;2024-01-11T05:59:44;0.77;;;0.50;;
15006;SDS011;7599;50.748;13.142;2024-01-11T06:02:47;0.47;;;0.32;;
15006;SDS011;7599;50.748;13.142;2024-01-11T06:08:52;0.55;;;0.40;;
15006;SDS011;7599;50.748;13.142;2024-01-11T06:11:55;1.23;;;0.60;;
15006;SDS011;7599;50.748;13.142;2024-01-11T06:14:59;2.65;;;0.60;;
15006;SDS011;7599;50.748;13.142;2024-01-11T06:18:01;7.40;;;0.70;;
15006;SDS011;7599;50.748;13.142;2024-01-11T06:21:06;0.68;;;0.40;;
15006;SDS011;7599;50.748;13.142;2024-01-11T06:24:08;0.85;;;0.50;;
15006;SDS011;7599;50.748;13.142;2024-01-11T06:27:11;0.47;;;0.35;;
15006;SDS011;7599;50.748;13.142;2024-01-11T06:30:15;1.63;;;0.35;;
15006;SDS011;7599;50.748;13.142;2024-01-11T06:33:17;0.70;;;0.32;;
15006;SDS011;7599;50.748;13.142;2024-01-11T06:36:21;2.25;;;0.60;;
15006;SDS011;7599;50.748;13.142;2024-01-11T06:39:24;0.65;;;0.45;;
15006;SDS011;7599;50.748;13.142;2024-01-11T06:42:27;1.10;;;0.63;;
15006;SDS011;7599;50.748;13.142;2024-01-11T06:45:31;2.97;;;0.60;;
15006;SDS011;7599;50.748;13.142;2024-01-11T06:48:34;0.40;;;0.32;;
15006;SDS011;7599;50.748;13.142;2024-01-11T06:51:37;0.90;;;0.40;;
15006;SDS011;7599;50.748;13.142;2024-01-11T06:54:40;0.88;;;0.52;;
15006;SDS011;7599;50.748;13.142;2024-01-11T06:57:46;0.75;;;0.60;;
15006;SDS011;7599;50.748;13.142;2024-01-11T07:00:50;0.95;;;0.70;;
15006;SDS011;7599;50.748;13.142;2024-01-11T07:03:53;0.80;;;0.50;;
15006;SDS011;7599;50.748;13.142;2024-01-11T07:06:56;0.52;;;0.32;;
15006;SDS011;7599;50.748;13.142;2024-01-11T07:09:58;0.85;;;0.57;;
15006;SDS011;7599;50.748;13.142;2024-01-11T07:13:02;0.40;;;0.30;;
15006;SDS011;7599;50.748;13.142;2024-01-11T07:16:06;0.68;;;0.40;;
15006;SDS011;7599;50.748;13.142;2024-01-11T07:19:09;0.77;;;0.45;;
15006;SDS011;7599;50.748;13.142;2024-01-11T07:22:12;0.50;;;0.40;;
15006;SDS011;7599;50.748;13.142;2024-01-11T07:25:15;0.40;;;0.40;;
15006;SDS011;7599;50.748;13.142;2024-01-11T07:28:18;0.75;;;0.40;;
15006;SDS011;7599;50.748;13.142;2024-01-11T07:31:22;0.95;;;0.40;;
15006;SDS011;7599;50.748;13.142;2024-01-11T07:34:24;1.48;;;0.40;;
15006;SDS011;7599;50.748;13.142;2024-01-11T07:37:27;1.20;;;0.57;;
15006;SDS011;7599;50.748;13.142;2024-01-11T07:40:29;0.70;;;0.60;;
15006;SDS011;7599;50.748;13.142;2024-01-11T07:43:36;0.70;;;0.50;;
15006;SDS011;7599;50.748;13.142;2024-01-11T07:46:55;1.17;;;0.50;;
15006;SDS011;7599;50.748;13.142;2024-01-11T07:49:58;2.45;;;0.65;;
15006;SDS011;7599;50.748;13.142;2024-01-11T07:56:03;1.27;;;0.50;;
15006;SDS011;7599;50.748;13.142;2024-01-11T07:59:06;1.65;;;0.60;;
15006;SDS011;7599;50.748;13.142;2024-01-11T08:02:10;1.13;;;0.60;;
15006;SDS011;7599;50.748;13.142;2024-01-11T08:05:13;7.95;;;0.90;;
15006;SDS011;7599;50.748;13.142;2024-01-11T08:08:16;3.97;;;0.57;;
15006;SDS011;7599;50.748;13.142;2024-01-11T08:11:20;3.60;;;1.17;;
15006;SDS011;7599;50.748;13.142;2024-01-11T08:14:23;2.70;;;0.88;;
15006;SDS011;7599;50.748;13.142;2024-01-11T08:17:30;1.25;;;0.80;;
15006;SDS011;7599;50.748;13.142;2024-01-11T08:20:32;3.40;;;0.85;;
15006;SDS011;7599;50.748;13.142;2024-01-11T08:23:35;2.75;;;0.80;;
15006;SDS011;7599;50.748;13.142;2024-01-11T08:26:37;1.98;;;0.80;;
15006;SDS011;7599;50.748;13.142;2024-01-11T08:32:44;2.25;;;0.80;;
15006;SDS011;7599;50.748;13.142;2024-01-11T08:35:47;2.88;;;1.00;;
15006;SDS011;7599;50.748;13.142;2024-01-11T08:41:52;1.00;;;0.65;;
15006;SDS011;7599;50.748;13.142;2024-01-11T08:44:55;2.05;;;0.70;;
15006;SDS011;7599;50.748;13.142;2024-01-11T08:48:00;1.30;;;0.80;;
15006;SDS011;7599;50.748;13.142;2024-01-11T08:51:03;1.35;;;0.70;;
15006;SDS011;7599;50.748;13.142;2024-01-11T08:54:08;1.10;;;0.60;;
15006;SDS011;7599;50.748;13.142;2024-01-11T08:57:12;1.33;;;0.98;;
15006;SDS011;7599;50.748;13.142;2024-01-11T09:00:26;2.40;;;0.82;;
15006;SDS011;7599;50.748;13.142;2024-01-11T09:11:36;1.92;;;1.02;;
15006;SDS011;7599;50.748;13.142;2024-01-11T09:14:42;1.85;;;1.48;;
15006;SDS011;7599;50.748;13.142;2024-01-11T09:17:45;2.58;;;0.88;;
15006;SDS011;7599;50.748;13.142;2024-01-11T09:20:51;1.13;;;1.00;;
15006;SDS011;7599;50.748;13.142;2024-01-11T09:23:56;1.13;;;1.02;;
15006;SDS011;7599;50.748;13.142;2024-01-11T09:27:02;1.10;;;1.00;;
15006;SDS011;7599;50.748;13.142;2024-01-11T09:30:06;1.35;;;0.80;;
15006;SDS011;7599;50.748;13.142;2024-01-11T09:33:10;1.27;;;0.90;;
15006;SDS011;7599;50.748;13.142;2024-01-11T09:36:13;1.40;;;0.95;;
15006;SDS011;7599;50.748;13.142;2024-01-11T09:39:17;1.20;;;0.90;;
15006;SDS011;7599;50.748;13.142;2024-01-11T09:42:20;1.10;;;0.90;;
15006;SDS011;7599;50.748;13.142;2024-01-11T09:45:23;1.40;;;1.08;;
15006;SDS011;7599;50.748;13.142;2024-01-11T09:48:27;1.17;;;0.90;;
15006;SDS011;7599;50.748;13.142;2024-01-11T09:51:30;1.20;;;0.93;;
15006;SDS011;7599;50.748;13.142;2024-01-11T09:54:41;1.20;;;1.10;;
15006;SDS011;7599;50.748;13.142;2024-01-11T09:57:44;1.00;;;0.77;;
15006;SDS011;7599;50.748;13.142;2024-01-11T10:00:48;1.60;;;0.93;;
15006;SDS011;7599;50.748;13.142;2024-01-11T10:03:55;1.45;;;0.85;;
15006;SDS011;7599;50.748;13.142;2024-01-11T10:06:58;0.88;;;0.77;;
15006;SDS011;7599;50.748;13.142;2024-01-11T10:10:06;0.80;;;0.70;;
15006;SDS011;7599;50.748;13.142;2024-01-11T10:13:09;1.42;;;1.00;;
15006;SDS011;7599;50.748;13.142;2024-01-11T10:16:12;1.38;;;0.75;;
15006;SDS011;7599;50.748;13.142;2024-01-11T10:19:16;0.80;;;0.60;;
15006;SDS011;7599;50.748;13.142;2024-01-11T10:22:23;0.63;;;0.50;;
15006;SDS011;7599;50.748;13.142;2024-01-11T10:25:29;1.00;;;0.90;;
15006;SDS011;7599;50.748;13.142;2024-01-11T10:28:32;1.33;;;0.70;;
15006;SDS011;7599;50.748;13.142;2024-01-11T10:31:38;1.00;;;0.60;;
15006;SDS011;7599;50.748;13.142;2024-01-11T10:34:41;1.02;;;0.70;;
15006;SDS011;7599;50.748;13.142;2024-01-11T10:37:44;1.33;;;0.90;;
15006;SDS011;7599;50.748;13.142;2024-01-11T10:40:48;1.02;;;0.70;;
15006;SDS011;7599;50.748;13.142;2024-01-11T10:43:51;1.77;;;0.60;;
15006;SDS011;7599;50.748;13.142;2024-01-11T10:46:56;1.35;;;0.93;;
15006;SDS011;7599;50.748;13.142;2024-01-11T10:49:59;1.00;;;0.80;;
15006;SDS011;7599;50.748;13.142;2024-01-11T10:53:08;1.33;;;0.80;;
15006;SDS011;7599;50.748;13.142;2024-01-11T10:56:21;1.50;;;0.90;;
15006;SDS011;7599;50.748;13.142;2024-01-11T10:59:25;0.80;;;0.80;;
15006;SDS011;7599;50.748;13.142;2024-01-11T11:02:29;1.75;;;1.00;;
15006;SDS011;7599;50.748;13.142;2024-01-11T11:05:32;1.23;;;1.00;;
15006;SDS011;7599;50.748;13.142;2024-01-11T11:08:37;1.75;;;1.08;;
15006;SDS011;7599;50.748;13.142;2024-01-11T11:11:47;1.63;;;1.00;;
15006;SDS011;7599;50.748;13.142;2024-01-11T11:14:52;1.60;;;0.95;;
15006;SDS011;7599;50.748;13.142;2024-01-11T11:17:59;1.67;;;1.00;;
15006;SDS011;7599;50.748;13.142;2024-01-11T11:21:08;0.82;;;0.80;;
15006;SDS011;7599;50.748;13.142;2024-01-11T11:24:19;1.88;;;1.02;;
15006;SDS011;7599;50.748;13.142;2024-01-11T11:27:26;1.05;;;0.93;;
15006;SDS011;7599;50.748;13.142;2024-01-11T11:30:30;1.35;;;1.10;;
15006;SDS011;7599;50.748;13.142;2024-01-11T11:33:34;1.75;;;1.10;;
15006;SDS011;7599;50.748;13.142;2024-01-11T11:36:41;1.27;;;1.00;;
15006;SDS011;7599;50.748;13.142;2024-01-11T11:39:48;1.73;;;0.88;;
15006;SDS011;7599;50.748;13.142;2024-01-11T11:42:52;1.73;;;0.90;;
15006;SDS011;7599;50.748;13.142;2024-01-11T11:45:56;0.98;;;0.82;;
15006;SDS011;7599;50.748;13.142;2024-01-11T11:49:04;2.08;;;0.90;;
15006;SDS011;7599;50.748;13.142;2024-01-11T11:52:13;1.02;;;0.80;;
15006;SDS011;7599;50.748;13.142;2024-01-11T11:55:16;1.10;;;0.80;;
15006;SDS011;7599;50.748;13.142;2024-01-11T11:58:21;1.17;;;0.80;;
15006;SDS011;7599;50.748;13.142;2024-01-11T12:01:23;1.08;;;0.88;;
15006;SDS011;7599;50.748;13.142;2024-01-11T12:04:27;1.60;;;1.02;;
15006;SDS011;7599;50.748;13.142;2024-01-11T12:07:31;1.95;;;1.00;;
15006;SDS011;7599;50.748;13.142;2024-01-11T12:10:34;1.10;;;0.80;;
15006;SDS011;7599;50.748;13.142;2024-01-11T12:13:37;1.50;;;1.05;;
15006;SDS011;7599;50.748;13.142;2024-01-11T12:16:40;1.25;;;1.10;;
15006;SDS011;7599;50.748;13.142;2024-01-11T12:19:47;1.65;;;0.93;;
15006;SDS011;7599;50.748;13.142;2024-01-11T12:22:58;1.40;;;1.13;;
15006;SDS011;7599;50.748;13.142;2024-01-11T12:26:01;1.40;;;1.00;;
15006;SDS011;7599;50.748;13.142;2024-01-11T12:29:06;1.77;;;1.00;;
15006;SDS011;7599;50.748;13.142;2024-01-11T12:32:10;3.78;;;1.17;;
15006;SDS011;7599;50.748;13.142;2024-01-11T12:35:37;1.67;;;1.10;;
15006;SDS011;7599;50.748;13.142;2024-01-11T12:38:55;2.22;;;1.05;;
15006;SDS011;7599;50.748;13.142;2024-01-11T12:42:16;1.95;;;1.08;;
15006;SDS011;7599;50.748;13.142;2024-01-11T12:45:30;2.47;;;1.30;;
15006;SDS011;7599;50.748;13.142;2024-01-11T14:38:16;6.57;;;2.50;;
15006;SDS011;7599;50.748;13.142;2024-01-11T14:41:19;6.53;;;2.28;;
15006;SDS011;7599;50.748;13.142;2024-01-11T14:44:21;9.98;;;2.05;;
15006;SDS011;7599;50.748;13.142;2024-01-11T14:47:24;13.70;;;2.40;;
15006;SDS011;7599;50.748;13.142;2024-01-11T14:50:27;10.10;;;2.42;;
15006;SDS011;7599;50.748;13.142;2024-01-11T14:53:31;8.98;;;2.28;;
15006;SDS011;7599;50.748;13.142;2024-01-11T14:56:34;10.38;;;2.55;;
15006;SDS011;7599;50.748;13.142;2024-01-11T14:59:37;6.30;;;2.13;;
15006;SDS011;7599;50.748;13.142;2024-01-11T15:02:40;5.03;;;1.83;;
15006;SDS011;7599;50.748;13.142;2024-01-11T15:05:43;7.43;;;2.25;;
15006;SDS011;7599;50.748;13.142;2024-01-11T15:11:49;8.57;;;2.30;;
15006;SDS011;7599;50.748;13.142;2024-01-11T15:14:52;6.45;;;1.83;;
15006;SDS011;7599;50.748;13.142;2024-01-11T15:17:55;6.95;;;2.08;;
15006;SDS011;7599;50.748;13.142;2024-01-11T15:20:58;5.28;;;1.90;;
15006;SDS011;7599;50.748;13.142;2024-01-11T15:27:04;10.63;;;2.67;;
15006;SDS011;7599;50.748;13.142;2024-01-11T15:33:13;7.63;;;2.13;;
15006;SDS011;7599;50.748;13.142;2024-01-11T15:36:16;8.27;;;2.40;;
15006;SDS011;7599;50.748;13.142;2024-01-11T15:42:29;8.07;;;2.13;;
15006;SDS011;7599;50.748;13.142;2024-01-11T15:45:32;8.85;;;2.42;;
15006;SDS011;7599;50.748;13.142;2024-01-11T15:48:36;9.60;;;2.20;;
15006;SDS011;7599;50.748;13.142;2024-01-11T15:51:39;5.72;;;1.90;;
15006;SDS011;7599;50.748;13.142;2024-01-11T15:54:42;4.38;;;1.92;;
15006;SDS011;7599;50.748;13.142;2024-01-11T15:57:45;10.65;;;2.40;;
15006;SDS011;7599;50.748;13.142;2024-01-11T16:00:47;8.52;;;2.45;;
15006;SDS011;7599;50.748;13.142;2024-01-11T16:03:50;11.80;;;2.90;;
15006;SDS011;7599;50.748;13.142;2024-01-11T16:06:54;8.32;;;2.13;;
15006;SDS011;7599;50.748;13.142;2024-01-11T16:09:58;11.13;;;2.63;;
15006;SDS011;7599;50.748;13.142;2024-01-11T16:13:01;6.18;;;1.95;;
15006;SDS011;7599;50.748;13.142;2024-01-11T16:16:04;10.05;;;2.40;;
15006;SDS011;7599;50.748;13.142;2024-01-11T16:19:07;8.32;;;2.17;;
15006;SDS011;7599;50.748;13.142;2024-01-11T16:25:13;10.02;;;2.58;;
15006;SDS011;7599;50.748;13.142;2024-01-11T16:28:17;13.02;;;3.00;;
15006;SDS011;7599;50.748;13.142;2024-01-11T16:31:19;7.57;;;2.17;;
15006;SDS011;7599;50.748;13.142;2024-01-11T16:34:23;8.73;;;2.22;;
15006;SDS011;7599;50.748;13.142;2024-01-11T16:37:26;9.38;;;2.53;;
15006;SDS011;7599;50.748;13.142;2024-01-11T16:40:30;8.48;;;2.25;;
15006;SDS011;7599;50.748;13.142;2024-01-11T16:43:33;7.45;;;2.03;;
15006;SDS011;7599;50.748;13.142;2024-01-11T16:46:35;10.82;;;2.42;;
15006;SDS011;7599;50.748;13.142;2024-01-11T16:49:40;6.43;;;1.90;;
15006;SDS011;7599;50.748;13.142;2024-01-11T16:52:43;6.78;;;2.13;;
15006;SDS011;7599;50.748;13.142;2024-01-11T16:55:47;11.93;;;2.50;;
15006;SDS011;7599;50.748;13.142;2024-01-11T16:58:50;5.93;;;1.83;;
15006;SDS011;7599;50.748;13.142;2024-01-11T17:01:52;9.07;;;2.40;;
15006;SDS011;7599;50.748;13.142;2024-01-11T17:04:55;7.43;;;2.22;;
15006;SDS011;7599;50.748;13.142;2024-01-11T17:07:58;11.05;;;2.53;;
15006;SDS011;7599;50.748;13.142;2024-01-11T17:11:01;6.20;;;2.20;;
15006;SDS011;7599;50.748;13.142;2024-01-11T17:14:04;9.18;;;2.30;;
15006;SDS011;7599;50.748;13.142;2024-01-11T17:17:07;6.72;;;1.90;;
15006;SDS011;7599;50.748;13.142;2024-01-11T17:20:11;5.85;;;1.77;;
15006;SDS011;7599;50.748;13.142;2024-01-11T17:23:14;3.53;;;1.63;;
15006;SDS011;7599;50.748;13.142;2024-01-11T17:26:19;6.75;;;2.17;;
15006;SDS011;7599;50.748;13.142;2024-01-11T17:29:22;9.35;;;2.42;;
15006;SDS011;7599;50.748;13.142;2024-01-11T17:32:27;7.50;;;2.60;;
15006;SDS011;7599;50.748;13.142;2024-01-11T17:35:30;6.55;;;1.90;;
15006;SDS011;7599;50.748;13.142;2024-01-11T17:38:32;10.73;;;2.65;;
15006;SDS011;7599;50.748;13.142;2024-01-11T17:41:38;8.13;;;2.38;;
15006;SDS011;7599;50.748;13.142;2024-01-11T17:44:42;8.45;;;2.28;;
15006;SDS011;7599;50.748;13.142;2024-01-11T17:47:45;7.05;;;2.15;;
15006;SDS011;7599;50.748;13.142;2024-01-11T17:50:48;9.57;;;2.50;;
15006;SDS011;7599;50.748;13.142;2024-01-11T17:56:55;7.90;;;2.30;;
15006;SDS011;7599;50.748;13.142;2024-01-11T17:59:57;11.13;;;2.55;;
15006;SDS011;7599;50.748;13.142;2024-01-11T18:03:00;9.05;;;2.50;;
15006;SDS011;7599;50.748;13.142;2024-01-11T18:06:04;9.80;;;2.50;;
15006;SDS011;7599;50.748;13.142;2024-01-11T18:09:06;6.85;;;2.20;;
15006;SDS011;7599;50.748;13.142;2024-01-11T18:12:10;9.00;;;2.35;;
15006;SDS011;7599;50.748;13.142;2024-01-11T18:15:13;6.93;;;2.25;;
15006;SDS011;7599;50.748;13.142;2024-01-11T18:18:15;9.60;;;2.47;;
15006;SDS011;7599;50.748;13.142;2024-01-11T18:24:21;6.78;;;2.00;;
15006;SDS011;7599;50.748;13.142;2024-01-11T18:27:25;5.70;;;2.05;;
15006;SDS011;7599;50.748;13.142;2024-01-11T18:30:28;5.35;;;2.05;;
15006;SDS011;7599;50.748;13.142;2024-01-11T18:33:31;7.18;;;2.30;;
15006;SDS011;7599;50.748;13.142;2024-01-11T18:36:41;6.75;;;2.25;;
15006;SDS011;7599;50.748;13.142;2024-01-11T18:39:44;8.30;;;2.47;;
15006;SDS011;7599;50.748;13.142;2024-01-11T18:42:49;8.15;;;2.30;;
15006;SDS011;7599;50.748;13.142;2024-01-11T18:45:51;7.63;;;2.30;;
15006;SDS011;7599;50.748;13.142;2024-01-11T18:48:54;8.55;;;2.38;;
15006;SDS011;7599;50.748;13.142;2024-01-11T18:51:56;7.40;;;2.30;;
15006;SDS011;7599;50.748;13.142;2024-01-11T18:54:59;11.02;;;2.72;;
15006;SDS011;7599;50.748;13.142;2024-01-11T18:58:17;10.07;;;2.70;;
15006;SDS011;7599;50.748;13.142;2024-01-11T19:01:20;7.20;;;2.30;;
15006;SDS011;7599;50.748;13.142;2024-01-11T19:04:26;10.10;;;2.47;;
15006;SDS011;7599;50.748;13.142;2024-01-11T19:07:29;6.30;;;2.20;;
15006;SDS011;7599;50.748;13.142;2024-01-11T19:16:38;8.13;;;2.10;;
15006;SDS011;7599;50.748;13.142;2024-01-11T19:19:40;5.78;;;1.95;;
15006;SDS011;7599;50.748;13.142;2024-01-11T19:22:43;7.28;;;2.25;;
15006;SDS011;7599;50.748;13.142;2024-01-11T19:25:46;4.47;;;1.85;;
15006;SDS011;7599;50.748;13.142;2024-01-11T19:28:50;7.88;;;2.30;;
15006;SDS011;7599;50.748;13.142;2024-01-11T19:31:53;8.75;;;2.65;;
15006;SDS011;7599;50.748;13.142;2024-01-11T19:34:55;7.30;;;2.17;;
15006;SDS011;7599;50.748;13.142;2024-01-11T19:37:58;4.80;;;1.80;;
15006;SDS011;7599;50.748;13.142;2024-01-11T19:41:01;6.72;;;2.05;;
15006;SDS011;7599;50.748;13.142;2024-01-11T19:44:05;6.57;;;1.95;;
15006;SDS011;7599;50.748;13.142;2024-01-11T19:47:09;5.13;;;1.80;;
15006;SDS011;7599;50.748;13.142;2024-01-11T19:50:12;5.15;;;1.90;;
15006;SDS011;7599;50.748;13.142;2024-01-11T19:53:14;5.47;;;1.67;;
15006;SDS011;7599;50.748;13.142;2024-01-11T19:56:17;3.30;;;1.70;;
15006;SDS011;7599;50.748;13.142;2024-01-11T19:59:22;4.95;;;2.08;;
15006;SDS011;7599;50.748;13.142;2024-01-11T20:02:25;7.28;;;2.00;;
15006;SDS011;7599;50.748;13.142;2024-01-11T20:11:33;6.15;;;2.00;;
15006;SDS011;7599;50.748;13.142;2024-01-11T20:14:37;4.60;;;1.83;;
15006;SDS011;7599;50.748;13.142;2024-01-11T20:17:41;5.38;;;1.60;;
15006;SDS011;7599;50.748;13.142;2024-01-11T20:20:43;5.97;;;1.95;;
15006;SDS011;7599;50.748;13.142;2024-01-11T20:26:49;4.10;;;1.60;;
15006;SDS011;7599;50.748;13.142;2024-01-11T20:29:53;8.95;;;2.05;;
15006;SDS011;7599;50.748;13.142;2024-01-11T20:32:55;5.82;;;1.85;;
15006;SDS011;7599;50.748;13.142;2024-01-11T20:35:58;6.82;;;1.92;;
15006;SDS011;7599;50.748;13.142;2024-01-11T20:39:05;6.18;;;1.83;;
15006;SDS011;7599;50.748;13.142;2024-01-11T20:42:09;8.60;;;2.33;;
15006;SDS011;7599;50.748;13.142;2024-01-11T20:45:13;5.53;;;1.67;;
15006;SDS011;7599;50.748;13.142;2024-01-11T20:48:15;7.72;;;2.20;;
15006;SDS011;7599;50.748;13.142;2024-01-11T20:51:21;7.75;;;2.13;;
15006;SDS011;7599;50.748;13.142;2024-01-11T20:54:23;5.10;;;1.65;;
15006;SDS011;7599;50.748;13.142;2024-01-11T20:57:26;5.18;;;1.55;;
15006;SDS011;7599;50.748;13.142;2024-01-11T21:00:29;6.95;;;1.80;;
15006;SDS011;7599;50.748;13.142;2024-01-11T21:03:33;4.57;;;1.38;;
15006;SDS011;7599;50.748;13.142;2024-01-11T21:06:35;6.93;;;2.20;;
15006;SDS011;7599;50.748;13.142;2024-01-11T21:09:38;5.78;;;2.25;;
15006;SDS011;7599;50.748;13.142;2024-01-11T21:12:40;6.88;;;2.08;;
15006;SDS011;7599;50.748;13.142;2024-01-11T21:15:44;5.95;;;1.70;;
15006;SDS011;7599;50.748;13.142;2024-01-11T21:18:46;7.43;;;1.85;;
15006;SDS011;7599;50.748;13.142;2024-01-11T21:21:54;6.20;;;1.80;;
15006;SDS011;7599;50.748;13.142;2024-01-11T21:24:56;6.57;;;2.00;;
15006;SDS011;7599;50.748;13.142;2024-01-11T21:27:59;4.53;;;1.80;;
15006;SDS011;7599;50.748;13.142;2024-01-11T21:31:03;5.88;;;1.70;;
15006;SDS011;7599;50.748;13.142;2024-01-11T21:34:06;6.75;;;2.00;;
15006;SDS011;7599;50.748;13.142;2024-01-11T21:37:09;5.30;;;1.67;;
15006;SDS011;7599;50.748;13.142;2024-01-11T21:40:11;5.47;;;1.92;;
15006;SDS011;7599;50.748;13.142;2024-01-11T21:43:14;7.88;;;1.98;;
15006;SDS011;7599;50.748;13.142;2024-01-11T21:46:18;4.82;;;1.73;;
15006;SDS011;7599;50.748;13.142;2024-01-11T21:49:21;4.65;;;1.70;;
15006;SDS011;7599;50.748;13.142;2024-01-11T21:52:24;4.13;;;1.73;;